Página principal
METAR-TAF:

METAR-TAF

Aeroportos :

Aeroporto Internacional de Harare

Harare, Zimbabwe

latitude: 17-55S, longitude: 031-08E, altura: 1479 m

Observação actual do tempo

O boletim foi feito há 15 minutos, às 17:00 UTC
Vento 7 kt de sudeste
Temperatura 13°C
Humidade 47%
Pressão 1032 hPa
Visibilidade 10 km ou mais
sem nuvens abaixo de 1500 metros e sem cumulonimbus

METAR: FVHA 231700Z 13007KT CAVOK 13/02 Q1032 NOSIG

Hora: 19:15 (17:15 UTC)

Previsão

O boletim foi feito há 13 horas e 15 minutos, às 04:00 UTC
Previsão válida de 23 às 06 UTC a 24 às 12 UTC
Vento 7 kt de sudeste
Visibilidade 10 km ou mais
sem nuvens abaixo de 1500 metros e sem cumulonimbus
Tornando-se
de 23 às 07 UTC a 23 às 09 UTC
Visibilidade 10 km ou mais
Nuvens dispersasa uma altura de 2000 ft
A partir de 23 às 1400 UTC
Visibilidade 10 km ou mais
sem nuvens abaixo de 1500 metros e sem cumulonimbus

TAF: FVHA 230400Z 2306/2412 14007KT CAVOK BECMG 2307/2309 9999 SCT020 FM231400 CAVOK

Observações e previsões do tempo de mais de 4000 aeroportos (mensagens METAR e TAF).

As estações disponíveis são os pontos amarelos e vermelhos sobre o mapa.

Mova o rato sobre o mapa para ver o nome da estação.

Depois clique no ponto para visualizar as observações e previsões meteorológicas.

Para alterar o mapa : clique nos botões verdes com uma cruz preta para aumentar o zoom; no botão verde com uma pitada de zoom; ou nas setas verdes para mapas adjacentes.


METAR-TAF: